Time;durP1;ratioP1;P1;durP2;ratioP2;P2;SDS_P1;SDS_P2;PMS_P1;PMS_P2;Temp;Humidity;BMP_temperature;BMP_pressure;BME280_temperature;BME280_humidity;BME280_pressure;Samples;Min_cycle;Max_cycle;Signal;HPM_P1;HPM_P2
2022/10/28 00:02:04;;;;;;;176.93;24.72;;;;;;;7.95;87.63;101154.91;1981409;88;21858;-71
2022/10/28 00:05:11;;;;;;;35.68;24.87;;;;;;;7.87;87.78;101144.12;1971590;87;21057;-71
2022/10/28 00:08:22;;;;;;;190.88;24.57;;;;;;;7.82;87.82;101152.41;1994200;87;21089;-75
2022/10/28 00:11:32;;;;;;;;;;;;;;;7.80;87.95;101146.43;1995759;87;21110;-73
2022/10/28 00:14:29;;;;;;;38.83;25.68;;;;;;;7.80;88.71;101144.27;1993557;87;20187;-71
2022/10/28 00:17:31;;;;;;;41.45;26.85;;;;;;;7.92;89.63;101147.23;1979980;87;21045;-70
2022/10/28 00:20:32;;;;;;;33.50;26.17;;;;;;;8.03;89.83;101144.56;1998440;87;21004;-72
2022/10/28 00:23:33;;;;;;;33.78;26.97;;;;;;;8.07;89.65;101152.58;1994768;87;21029;-71
2022/10/28 00:26:41;;;;;;;43.60;29.20;;;;;;;8.12;89.84;101149.57;1995740;88;21544;-70
2022/10/28 00:29:43;;;;;;;40.38;30.27;;;;;;;8.20;90.08;101155.56;2002736;87;21411;-71
2022/10/28 00:32:44;;;;;;;41.53;29.37;;;;;;;8.28;90.31;101159.73;2004153;87;21154;-71
2022/10/28 00:35:49;;;;;;;114.15;31.17;;;;;;;8.35;90.32;101162.70;1992732;88;21033;-70
2022/10/28 00:38:56;;;;;;;46.37;27.98;;;;;;;8.32;89.99;101146.61;2001660;87;21059;-71
2022/10/28 00:42:05;;;;;;;43.87;30.43;;;;;;;8.32;90.00;101138.67;1999674;87;21553;-72
2022/10/28 00:45:11;;;;;;;44.10;31.82;;;;;;;8.37;90.44;101145.75;2003135;87;21027;-71
2022/10/28 00:48:12;;;;;;;53.40;34.50;;;;;;;8.43;90.51;101137.82;2010203;87;21070;-73
2022/10/28 00:51:15;;;;;;;55.85;31.62;;;;;;;8.48;90.55;101146.21;2006550;87;21082;-72
2022/10/28 00:54:22;;;;;;;79.97;30.90;;;;;;;8.53;90.88;101134.28;1985099;88;21472;-72
2022/10/28 00:57:28;;;;;;;298.10;31.52;;;;;;;8.60;91.08;101135.92;2003382;87;21043;-72
2022/10/28 01:00:30;;;;;;;248.43;31.33;;;;;;;8.63;90.95;101132.17;2007337;88;21076;-72
2022/10/28 01:03:31;;;;;;;181.97;29.02;;;;;;;8.60;90.90;101125.33;1985744;88;21085;-71
2022/10/28 01:06:37;;;;;;;244.15;28.77;;;;;;;8.60;90.86;101124.02;2006669;87;21639;-72
2022/10/28 01:09:45;;;;;;;152.78;28.40;;;;;;;8.61;90.94;101120.88;2004318;87;21045;-72
2022/10/28 01:13:21;;;;;;;234.12;28.17;;;;;;;8.59;90.99;101116.19;2008061;87;21065;-70
2022/10/28 01:16:59;;;;;;;47.95;29.40;;;;;;;8.56;91.01;101109.84;2002321;87;21132;-70
2022/10/28 01:20:49;;;;;;;45.45;30.43;;;;;;;8.53;91.18;101111.80;2002384;87;21067;-71
2022/10/28 01:24:05;;;;;;;36.40;26.90;;;;;;;8.52;91.35;101098.69;1990808;87;21083;-70
2022/10/28 01:27:55;;;;;;;43.33;28.38;;;;;;;8.58;91.83;101094.69;2006846;87;21076;-71
2022/10/28 01:31:45;;;;;;;40.55;30.68;;;;;;;8.65;92.17;101099.82;2003202;88;21118;-70
2022/10/28 01:35:28;;;;;;;45.40;28.47;;;;;;;8.70;92.18;101093.63;1991036;87;21089;-71
2022/10/28 01:38:57;;;;;;;46.90;30.10;;;;;;;8.72;92.15;101089.05;2003078;86;21494;-73
2022/10/28 01:42:08;;;;;;;42.53;29.63;;;;;;;8.72;92.33;101071.86;1994500;88;21047;-71
2022/10/28 01:45:21;;;;;;;44.48;30.90;;;;;;;8.74;92.65;101074.73;1993546;87;21034;-71
2022/10/28 01:48:33;;;;;;;45.90;32.50;;;;;;;8.79;93.04;101074.34;2004484;87;21137;-71
2022/10/28 01:51:40;;;;;;;43.08;30.48;;;;;;;8.81;92.64;101077.67;1996575;87;21103;-71
2022/10/28 01:54:45;;;;;;;44.38;31.00;;;;;;;8.80;92.28;101081.79;1993598;88;21076;-71
2022/10/28 01:57:49;;;;;;;52.33;29.32;;;;;;;8.77;92.13;101080.24;1996673;87;21074;-71
2022/10/28 02:00:51;;;;;;;43.83;28.90;;;;;;;8.73;91.82;101082.32;2002637;87;21017;-71
2022/10/28 02:03:53;;;;;;;82.90;29.80;;;;;;;8.60;91.29;101078.20;1997416;87;21019;-72
2022/10/28 02:06:57;;;;;;;210.13;27.77;;;;;;;8.42;90.75;101077.48;2004729;88;21672;-71
2022/10/28 02:10:13;;;;;;;183.57;27.40;;;;;;;8.24;90.54;101071.05;2003798;87;21068;-71
2022/10/28 02:13:17;;;;;;;179.90;25.68;;;;;;;8.12;90.56;101066.30;1998726;88;21046;-71
2022/10/28 02:16:33;;;;;;;112.65;24.55;;;;;;;8.01;90.86;101061.90;1993570;88;21099;-70
2022/10/28 02:19:53;;;;;;;46.83;27.65;;;;;;;7.95;91.17;101052.33;1994931;87;21047;-72
2022/10/28 02:23:32;;;;;;;40.50;27.70;;;;;;;7.92;91.34;101055.23;2001701;87;21021;-72
2022/10/28 02:26:42;;;;;;;62.10;28.07;;;;;;;7.96;91.85;101058.80;1999172;87;21557;-71
2022/10/28 02:29:51;;;;;;;204.20;33.33;;;;;;;7.94;91.73;101064.71;1997672;87;21604;-71
2022/10/28 02:32:59;;;;;;;294.73;31.20;;;;;;;7.91;91.75;101060.97;1996811;88;21055;-71
2022/10/28 02:36:05;;;;;;;311.73;31.35;;;;;;;7.90;91.73;101057.16;1996042;88;21747;-74
2022/10/28 02:39:07;;;;;;;83.30;25.27;;;;;;;7.80;91.31;101058.41;2000784;87;21158;-71
2022/10/28 02:42:13;;;;;;;297.45;28.12;;;;;;;7.67;91.17;101064.33;2001217;87;21028;-70
2022/10/28 02:45:18;;;;;;;289.27;24.57;;;;;;;7.60;91.25;101063.96;2005698;88;21479;-71
2022/10/28 02:48:39;;;;;;;301.88;26.68;;;;;;;7.55;91.30;101059.07;1994786;88;21113;-71
2022/10/28 02:51:57;;;;;;;324.05;28.10;;;;;;;7.44;90.79;101065.70;2004459;88;21090;-71
2022/10/28 02:55:03;;;;;;;327.43;26.90;;;;;;;7.32;90.86;101053.01;2000154;87;21088;-73
2022/10/28 02:58:05;;;;;;;169.17;25.55;;;;;;;7.35;91.57;101050.13;1996601;88;21054;-70
2022/10/28 03:01:06;;;;;;;150.97;25.15;;;;;;;7.30;91.37;101056.73;1978273;87;21056;-71
2022/10/28 03:04:07;;;;;;;281.27;28.38;;;;;;;7.25;91.29;101065.49;2000234;87;20997;-72
2022/10/28 03:07:08;;;;;;;209.12;25.50;;;;;;;7.24;91.61;101055.91;1996947;87;21929;-71
2022/10/28 03:10:10;;;;;;;258.30;23.45;;;;;;;7.16;91.38;101058.66;1996906;87;21070;-70
2022/10/28 03:13:11;;;;;;;273.70;25.72;;;;;;;7.09;91.20;101064.05;1999224;88;21137;-71
2022/10/28 03:16:12;;;;;;;390.77;29.55;;;;;;;7.02;91.16;101058.91;1998183;88;21040;-70
2022/10/28 03:19:13;;;;;;;93.72;25.27;;;;;;;6.96;91.32;101058.08;1998163;87;21016;-70
2022/10/28 03:22:14;;;;;;;201.75;27.58;;;;;;;6.92;91.35;101058.78;1997340;88;21141;-71
2022/10/28 03:25:15;;;;;;;229.28;28.25;;;;;;;6.90;91.44;101059.89;2003005;87;20999;-73
2022/10/28 03:28:16;;;;;;;162.88;27.13;;;;;;;6.87;91.26;101063.60;1993720;87;21081;-70
2022/10/28 03:31:17;;;;;;;250.47;32.33;;;;;;;6.86;91.38;101064.54;1999212;88;21524;-73
2022/10/28 03:34:18;;;;;;;290.32;29.95;;;;;;;6.89;91.88;101055.55;1996513;87;21059;-71
2022/10/28 03:37:19;;;;;;;377.55;33.08;;;;;;;6.97;92.40;101054.47;1996852;88;21015;-71
2022/10/28 03:40:22;;;;;;;174.45;31.60;;;;;;;6.97;92.32;101054.47;2002956;88;21169;-72
2022/10/28 03:43:24;;;;;;;195.82;37.05;;;;;;;7.02;92.76;101043.56;2004767;88;21089;-70
2022/10/28 03:46:24;;;;;;;130.05;40.33;;;;;;;7.09;92.91;101044.25;2002082;87;21013;-71
2022/10/28 03:49:26;;;;;;;223.68;46.30;;;;;;;7.13;92.84;101048.84;1999987;87;21077;-72
2022/10/28 03:52:27;;;;;;;173.68;37.10;;;;;;;7.13;92.76;101045.70;2000564;87;21495;-70
2022/10/28 03:55:28;;;;;;;146.00;41.90;;;;;;;7.14;92.86;101037.30;2000090;87;21036;-70
2022/10/28 03:58:29;;;;;;;147.10;43.35;;;;;;;7.17;93.05;101039.21;1998672;87;21157;-70
2022/10/28 04:01:30;;;;;;;80.07;38.42;;;;;;;7.22;93.17;101039.34;1998188;87;21534;-71
2022/10/28 04:04:31;;;;;;;78.97;34.20;;;;;;;7.22;92.99;101035.38;1998172;88;21044;-71
2022/10/28 04:07:32;;;;;;;52.83;33.58;;;;;;;7.19;92.80;101038.62;1999117;87;21067;-71
2022/10/28 04:10:33;;;;;;;66.92;32.70;;;;;;;7.16;92.45;101043.31;2007094;87;21013;-70
2022/10/28 04:13:34;;;;;;;257.98;37.98;;;;;;;7.14;92.47;101041.27;2001746;87;21012;-71
2022/10/28 04:16:35;;;;;;;69.35;30.60;;;;;;;7.09;92.25;101038.14;2003521;87;21097;-71
2022/10/28 04:19:38;;;;;;;73.92;31.10;;;;;;;7.06;92.60;101033.95;1996878;87;21046;-71
2022/10/28 04:22:39;;;;;;;84.20;29.82;;;;;;;7.11;92.82;101031.78;1999324;88;21496;-71
2022/10/28 04:25:40;;;;;;;203.37;29.48;;;;;;;7.13;92.73;101033.00;1999399;87;21060;-70
2022/10/28 04:28:42;;;;;;;101.45;28.77;;;;;;;7.11;92.44;101033.59;1996468;87;21506;-70
2022/10/28 04:31:43;;;;;;;61.70;26.80;;;;;;;7.06;92.04;101029.98;2005297;87;21569;-71
2022/10/28 04:34:44;;;;;;;147.30;27.70;;;;;;;7.04;92.28;101030.61;2002132;88;21098;-70
2022/10/28 04:37:45;;;;;;;264.15;27.70;;;;;;;7.04;92.32;101024.02;2001852;87;21166;-71
2022/10/28 04:40:50;;;;;;;39.03;29.27;;;;;;;7.01;92.23;101020.30;2001566;88;21047;-71
2022/10/28 04:43:52;;;;;;;69.00;35.83;;;;;;;6.95;91.56;101024.72;2005703;87;21039;-71
2022/10/28 04:46:55;;;;;;;41.90;29.92;;;;;;;6.89;91.40;101022.57;1999984;87;21098;-71
2022/10/28 04:49:56;;;;;;;175.12;39.63;;;;;;;6.86;91.18;101020.17;1997271;87;21512;-72
2022/10/28 04:52:57;;;;;;;142.55;31.07;;;;;;;6.84;91.30;101011.53;1994363;87;21129;-72
2022/10/28 04:55:59;;;;;;;87.37;22.87;;;;;;;6.84;91.50;101000.98;2002994;87;21068;-70
2022/10/28 04:59:02;;;;;;;95.28;22.82;;;;;;;6.73;91.05;101000.53;1979713;87;21540;-71
2022/10/28 05:02:03;;;;;;;90.72;36.08;;;;;;;6.64;91.02;101006.02;2002386;87;21009;-72
2022/10/28 05:05:05;;;;;;;80.83;27.37;;;;;;;6.61;91.07;101009.38;2001411;87;21511;-71
2022/10/28 05:08:06;;;;;;;51.00;25.48;;;;;;;6.57;91.12;101002.69;1991654;88;21505;-70
2022/10/28 05:11:08;;;;;;;83.60;28.90;;;;;;;6.56;91.26;101008.45;1998240;87;21057;-72
2022/10/28 05:14:11;;;;;;;46.80;27.30;;;;;;;6.57;91.56;101000.88;2001148;87;21107;-71
2022/10/28 05:17:13;;;;;;;44.60;32.58;;;;;;;6.57;91.47;101013.23;1997125;88;21096;-70
2022/10/28 05:20:16;;;;;;;64.35;31.50;;;;;;;6.55;91.53;101009.87;2003919;87;21045;-70
2022/10/28 05:23:17;;;;;;;57.67;30.20;;;;;;;6.56;91.87;101012.40;1986756;87;21114;-74
2022/10/28 05:26:18;;;;;;;67.17;29.40;;;;;;;6.56;91.87;101014.17;1996691;87;21060;-71
2022/10/28 05:29:25;;;;;;;104.10;30.62;;;;;;;6.55;92.28;101006.74;2000346;87;21365;-72
2022/10/28 05:32:26;;;;;;;43.52;29.37;;;;;;;6.58;92.63;101011.78;1998008;87;21031;-71
2022/10/28 05:35:29;;;;;;;44.35;28.73;;;;;;;6.64;93.07;101007.34;2000759;88;21039;-71
2022/10/28 05:38:30;;;;;;;41.48;31.10;;;;;;;6.67;93.21;101009.77;1998434;88;21059;-73
2022/10/28 05:41:31;;;;;;;43.68;32.17;;;;;;;6.72;93.54;101014.66;2000273;87;21002;-71
2022/10/28 05:44:32;;;;;;;47.35;31.82;;;;;;;6.78;93.65;101018.13;1996038;87;21033;-74
2022/10/28 05:47:33;;;;;;;42.65;31.60;;;;;;;6.81;93.69;101008.66;1994069;87;21040;-71
2022/10/28 05:50:35;;;;;;;45.92;31.42;;;;;;;6.82;93.47;101024.86;1991687;88;21074;-70
2022/10/28 05:53:36;;;;;;;54.05;31.45;;;;;;;6.79;93.40;101017.19;1989983;87;21078;-70
2022/10/28 05:56:37;;;;;;;42.25;28.57;;;;;;;6.79;93.43;101011.92;1996860;88;21585;-70
2022/10/28 05:59:38;;;;;;;37.65;28.87;;;;;;;6.79;93.22;101014.55;1985055;88;21562;-70
2022/10/28 06:02:41;;;;;;;60.35;30.48;;;;;;;6.85;93.43;101015.88;1982909;87;21054;-70
2022/10/28 06:05:44;;;;;;;40.80;30.23;;;;;;;6.89;93.26;101009.38;1991162;87;21072;-71
2022/10/28 06:08:45;;;;;;;36.38;28.50;;;;;;;6.89;92.94;101005.42;1980091;88;21025;-70
2022/10/28 06:11:47;;;;;;;40.00;28.75;;;;;;;6.95;92.77;101006.25;1980031;88;21067;-70
2022/10/28 06:14:48;;;;;;;35.65;27.40;;;;;;;7.10;92.90;101001.09;1994748;88;21022;-72
2022/10/28 06:17:50;;;;;;;40.35;27.77;;;;;;;7.34;93.08;100997.42;1994531;87;22604;-70
2022/10/28 06:20:57;;;;;;;45.45;29.35;;;;;;;7.58;93.15;101002.03;2001893;87;21174;-70
2022/10/28 06:23:58;;;;;;;35.30;27.55;;;;;;;7.92;93.60;100997.92;1994594;87;21959;-71
2022/10/28 06:26:59;;;;;;;39.58;28.98;;;;;;;8.17;93.05;100983.98;1995601;87;21066;-71
2022/10/28 06:30:00;;;;;;;35.10;27.10;;;;;;;8.44;93.25;100988.73;1980551;88;21071;-70
2022/10/28 06:33:01;;;;;;;28.83;23.50;;;;;;;8.76;93.23;100987.28;1995913;87;21111;-71
2022/10/28 06:36:03;;;;;;;28.55;22.35;;;;;;;9.02;92.45;100992.10;1994450;87;21574;-70
2022/10/28 06:39:05;;;;;;;34.38;23.98;;;;;;;9.31;92.46;100998.28;1998809;88;21129;-77
2022/10/28 06:42:06;;;;;;;30.60;23.50;;;;;;;9.70;92.84;100992.19;1994264;87;21078;-73
2022/10/28 06:45:08;;;;;;;28.02;22.20;;;;;;;10.11;92.85;100991.03;1998403;87;21015;-70
2022/10/28 06:48:09;;;;;;;30.20;21.75;;;;;;;10.55;92.79;100994.00;2004562;88;21043;-70
2022/10/28 06:51:11;;;;;;;29.42;21.12;;;;;;;11.03;92.76;100997.42;2005313;88;21079;-70
2022/10/28 06:54:14;;;;;;;31.93;20.62;;;;;;;11.45;92.31;101003.86;1999677;88;21121;-70
2022/10/28 06:57:15;;;;;;;28.15;20.55;;;;;;;11.82;91.43;101002.04;1992756;87;21080;-75
2022/10/28 07:00:17;;;;;;;24.25;19.23;;;;;;;12.01;90.25;101006.39;2004956;87;21021;-70
2022/10/28 07:03:19;;;;;;;29.55;20.62;;;;;;;12.21;90.39;101005.70;1999120;87;21054;-71
2022/10/28 07:06:19;;;;;;;26.93;20.90;;;;;;;12.48;90.05;100992.74;1997844;87;21052;-70
2022/10/28 07:09:21;;;;;;;25.27;19.30;;;;;;;12.55;89.16;101001.25;2000444;87;21088;-72
2022/10/28 07:12:22;;;;;;;29.98;20.55;;;;;;;12.51;88.29;100999.91;1990353;87;21069;-70
2022/10/28 07:15:23;;;;;;;30.12;20.72;;;;;;;12.50;88.33;101005.38;1994107;87;21023;-71
2022/10/28 07:18:27;;;;;;;25.02;18.23;;;;;;;12.64;88.95;101014.14;1991637;87;21154;-70
2022/10/28 07:21:28;;;;;;;26.33;19.02;;;;;;;12.84;88.86;101016.06;2001817;87;21004;-71
2022/10/28 07:24:29;;;;;;;25.85;18.92;;;;;;;12.96;88.49;101018.77;1990969;87;21648;-71
2022/10/28 07:27:30;;;;;;;23.87;17.10;;;;;;;13.15;88.34;101016.81;1994358;87;21047;-73
2022/10/28 07:30:32;;;;;;;26.17;19.23;;;;;;;13.26;87.70;101015.72;2002867;87;21043;-73
2022/10/28 07:33:33;;;;;;;24.82;17.57;;;;;;;13.31;87.46;101017.41;1964503;89;21820;-73
2022/10/28 07:36:34;;;;;;;24.30;17.90;;;;;;;13.40;87.56;101011.95;1954654;88;21111;-70
2022/10/28 07:39:35;;;;;;;26.27;17.60;;;;;;;13.57;87.50;101011.95;1956951;90;21539;-73
2022/10/28 07:42:36;;;;;;;26.37;17.62;;;;;;;13.63;86.81;101008.66;1956945;90;21599;-70
2022/10/28 07:45:37;;;;;;;26.23;17.12;;;;;;;13.89;87.05;101005.33;1955954;88;21122;-71
2022/10/28 07:48:39;;;;;;;22.60;16.07;;;;;;;14.18;86.84;101000.47;1960854;88;20987;-71
2022/10/28 07:51:40;;;;;;;22.35;15.48;;;;;;;14.39;86.57;101004.78;1963446;89;21610;-71
2022/10/28 07:54:41;;;;;;;21.30;15.45;;;;;;;14.55;86.23;101003.92;1960138;88;21073;-70
2022/10/28 07:57:42;;;;;;;21.15;14.85;;;;;;;14.47;85.42;101006.58;1959322;90;21067;-73
2022/10/28 08:00:44;;;;;;;19.23;15.18;;;;;;;14.39;85.27;101015.94;1961711;90;21044;-72
2022/10/28 08:03:49;;;;;;;18.62;14.10;;;;;;;14.22;84.97;101003.12;1959610;90;21593;-70
2022/10/28 08:06:50;;;;;;;16.82;13.90;;;;;;;14.14;85.05;101002.66;1959680;90;21555;-72
2022/10/28 08:09:52;;;;;;;21.25;14.20;;;;;;;14.02;84.90;101005.31;1954786;90;21059;-71
2022/10/28 08:12:56;;;;;;;18.27;13.08;;;;;;;13.96;85.16;101001.98;1960261;89;21071;-75
2022/10/28 08:15:58;;;;;;;20.60;14.38;;;;;;;14.00;85.39;101009.50;1959357;88;21009;-71
2022/10/28 08:18:59;;;;;;;17.30;13.05;;;;;;;14.24;85.89;101012.63;1963493;88;21091;-72
2022/10/28 08:22:01;;;;;;;20.82;14.33;;;;;;;14.54;85.38;101012.95;1961684;90;21051;-71
2022/10/28 08:25:02;;;;;;;21.23;14.60;;;;;;;14.64;85.14;101000.72;1959625;88;21044;-72
2022/10/28 08:28:06;;;;;;;17.35;12.03;;;;;;;14.80;84.76;100996.16;1969722;88;20968;-71
2022/10/28 08:31:08;;;;;;;19.15;13.90;;;;;;;15.16;84.41;100991.66;1966118;89;21495;-71
2022/10/28 08:34:10;;;;;;;19.48;13.00;;;;;;;15.55;83.87;100983.24;1966398;90;21550;-75
2022/10/28 08:37:11;;;;;;;22.13;13.22;;;;;;;15.52;82.34;100983.60;1968304;89;21628;-71
2022/10/28 08:40:12;;;;;;;18.87;11.88;;;;;;;15.49;82.10;100986.13;1959674;89;21090;-72
2022/10/28 08:43:24;;;;;;;17.30;12.20;;;;;;;15.65;81.72;100980.66;1956795;89;21070;-77
2022/10/28 08:47:27;;;;;;;16.05;12.13;;;;;;;15.88;81.48;100988.70;1948817;88;22251;-71
2022/10/28 08:50:35;;;;;;;16.57;11.97;;;;;;;16.12;80.69;100987.62;1959072;89;21106;-71
2022/10/28 08:53:53;;;;;;;17.92;11.97;;;;;;;15.84;80.01;100987.38;1967008;89;21027;-71
2022/10/28 08:56:58;;;;;;;16.37;11.12;;;;;;;15.84;80.31;100983.36;1964629;89;21010;-70
2022/10/28 09:00:02;;;;;;;17.12;11.33;;;;;;;16.05;80.35;100977.82;1948782;90;21693;-71
2022/10/28 09:03:21;;;;;;;14.07;11.05;;;;;;;16.34;80.19;100982.41;1956667;90;21561;-73
2022/10/28 09:06:24;;;;;;;14.90;11.10;;;;;;;16.65;79.40;100978.72;1951952;90;21094;-72
2022/10/28 09:09:25;;;;;;;12.13;9.73;;;;;;;17.08;79.45;100974.84;1963094;89;21019;-72
2022/10/28 09:12:52;;;;;;;16.73;8.68;;;;;;;17.54;79.85;100979.38;1963318;90;21102;-71
2022/10/28 09:16:03;;;;;;;16.82;9.35;;;;;;;18.07;79.01;100981.70;1962511;90;21170;-70
2022/10/28 09:19:16;;;;;;;20.67;11.23;;;;;;;18.28;76.99;100987.04;1959526;90;21083;-71
2022/10/28 09:22:34;;;;;;;13.65;8.70;;;;;;;18.54;76.34;100982.86;1958249;89;21895;-77
2022/10/28 09:26:13;;;;;;;16.87;8.33;;;;;;;18.69;76.21;100989.44;1967098;89;21551;-71
2022/10/28 09:29:37;;;;;;;10.20;8.00;;;;;;;18.81;75.09;100992.76;1961089;89;21127;-71
2022/10/28 09:32:53;;;;;;;11.78;7.22;;;;;;;19.14;75.29;101004.14;1983837;87;21167;-71
2022/10/28 09:35:56;;;;;;;9.73;6.80;;;;;;;19.36;74.29;100998.64;1998821;87;21066;-71
2022/10/28 09:38:59;;;;;;;8.83;6.67;;;;;;;19.66;73.98;100999.97;2005903;87;21011;-71
2022/10/28 09:42:03;;;;;;;8.33;6.05;;;;;;;19.84;72.33;100997.19;1998811;87;21091;-71
2022/10/28 09:45:11;;;;;;;8.75;6.87;;;;;;;19.96;72.75;100989.31;2010122;87;21020;-72
2022/10/28 09:48:26;;;;;;;10.30;6.80;;;;;;;20.18;72.33;100989.92;2010154;87;21158;-73
2022/10/28 09:52:09;;;;;;;8.65;6.25;;;;;;;20.38;71.63;100983.48;2004163;87;21137;-70
2022/10/28 09:55:22;;;;;;;9.95;6.25;;;;;;;20.53;70.95;100976.53;1990131;87;21105;-72
2022/10/28 09:58:23;;;;;;;9.95;7.03;;;;;;;20.56;69.54;100986.07;2002260;87;21575;-71
2022/10/28 10:01:25;;;;;;;7.05;5.85;;;;;;;20.43;68.88;100989.58;2002172;87;21610;-71
2022/10/28 10:04:30;;;;;;;12.78;6.15;;;;;;;20.42;69.25;100981.19;1983096;87;21074;-72
2022/10/28 10:07:42;;;;;;;10.28;7.17;;;;;;;20.54;68.72;100971.44;2004268;87;21132;-71
2022/10/28 10:10:59;;;;;;;10.72;7.42;;;;;;;20.62;68.65;100976.30;2008259;87;21068;-77
2022/10/28 10:14:06;;;;;;;8.33;5.97;;;;;;;20.72;67.61;100965.87;2001493;87;21053;-72
2022/10/28 10:17:15;;;;;;;8.48;5.50;;;;;;;20.77;68.13;100965.55;1997628;87;21063;-71
2022/10/28 10:20:20;;;;;;;9.47;6.30;;;;;;;20.78;67.53;100960.48;2004637;87;21456;-71
2022/10/28 10:23:34;;;;;;;9.98;5.62;;;;;;;20.95;67.76;100959.48;2002442;87;21452;-74
2022/10/28 10:26:35;;;;;;;8.13;5.80;;;;;;;21.09;67.08;100960.73;2003758;87;21020;-72
2022/10/28 10:29:45;;;;;;;10.20;5.90;;;;;;;21.28;66.91;100961.15;2003013;87;21166;-70
2022/10/28 10:32:48;;;;;;;12.68;5.05;;;;;;;21.34;66.11;100953.53;1978553;88;21068;-71
2022/10/28 10:36:03;;;;;;;11.57;5.80;;;;;;;21.44;66.48;100955.80;1997808;88;21068;-69
2022/10/28 10:39:03;;;;;;;6.47;4.83;;;;;;;21.58;65.29;100963.28;2007481;87;21037;-71
2022/10/28 10:42:19;;;;;;;10.53;4.90;;;;;;;21.56;65.47;100962.66;2007118;87;21684;-73
2022/10/28 10:45:24;;;;;;;9.45;5.50;;;;;;;21.66;65.74;100964.37;1994606;87;21644;-69
2022/10/28 10:48:28;;;;;;;11.83;6.15;;;;;;;21.92;64.98;100960.09;2002037;87;21048;-70
2022/10/28 10:51:29;;;;;;;9.43;6.22;;;;;;;21.86;64.35;100956.92;1995636;87;21060;-70
2022/10/28 10:54:33;;;;;;;14.75;7.83;;;;;;;21.87;64.12;100949.11;1997527;88;21079;-71
2022/10/28 10:57:34;;;;;;;7.92;4.90;;;;;;;21.88;64.06;100941.86;2000374;88;21013;-71
2022/10/28 11:00:37;;;;;;;9.40;4.53;;;;;;;21.81;63.02;100938.37;1998861;87;21094;-71
2022/10/28 11:03:49;;;;;;;7.72;4.25;;;;;;;21.81;63.00;100935.14;2002253;87;21119;-71
2022/10/28 11:06:57;;;;;;;8.55;4.08;;;;;;;21.76;63.08;100933.62;1996153;87;21074;-75
2022/10/28 11:09:59;;;;;;;9.38;4.90;;;;;;;21.79;62.71;100923.73;2004447;87;21080;-72
2022/10/28 11:13:05;;;;;;;6.22;4.62;;;;;;;21.79;60.45;100922.91;1996049;87;21074;-70
2022/10/28 11:16:19;;;;;;;8.33;4.58;;;;;;;21.67;62.15;100926.85;1995011;87;21583;-70
2022/10/28 11:19:30;;;;;;;10.32;4.90;;;;;;;21.65;61.37;100923.53;1976667;88;21079;-70
2022/10/28 11:22:46;;;;;;;11.75;5.40;;;;;;;21.71;62.03;100927.55;1997777;87;21086;-72
2022/10/28 11:25:54;;;;;;;12.58;5.10;;;;;;;21.82;61.34;100920.61;2002970;87;21548;-72
2022/10/28 11:29:09;;;;;;;14.65;4.67;;;;;;;21.82;60.50;100920.61;2003050;87;21667;-70
2022/10/28 11:32:59;;;;;;;9.63;4.15;;;;;;;21.89;61.93;100917.31;1994308;87;21182;-71
2022/10/28 11:36:35;;;;;;;8.43;4.33;;;;;;;22.12;61.55;100922.06;1965217;89;21054;-70
2022/10/28 11:39:43;;;;;;;10.30;3.77;;;;;;;22.10;59.08;100919.28;1963348;89;21063;-70
2022/10/28 11:43:11;;;;;;;8.13;4.53;;;;;;;21.96;60.73;100923.16;1960717;90;21007;-73
2022/10/28 11:47:05;;;;;;;10.32;4.15;;;;;;;22.13;61.26;100914.78;1960595;89;22020;-71
2022/10/28 11:50:28;;;;;;;6.30;3.70;;;;;;;22.29;60.15;100915.58;1966225;89;21543;-72
2022/10/28 11:54:13;;;;;;;10.05;4.62;;;;;;;22.38;60.78;100910.20;1966007;89;21076;-71
2022/10/28 11:57:20;;;;;;;6.62;3.98;;;;;;;22.32;59.14;100897.55;1961857;89;21106;-71
2022/10/28 12:00:44;;;;;;;7.72;3.30;;;;;;;22.37;60.26;100890.95;1962505;89;21137;-71
2022/10/28 12:03:51;;;;;;;7.55;3.90;;;;;;;22.50;60.29;100894.57;1960111;89;21047;-71
2022/10/28 12:07:27;;;;;;;8.80;3.92;;;;;;;22.59;60.18;100892.67;1967699;89;21024;-71
2022/10/28 12:11:01;;;;;;;7.25;3.72;;;;;;;22.73;59.75;100885.20;1969577;89;21109;-74
2022/10/28 12:14:16;;;;;;;7.72;3.15;;;;;;;22.74;59.09;100876.03;1945578;90;21082;-70
2022/10/28 12:18:00;;;;;;;9.70;3.62;;;;;;;22.68;58.56;100859.37;1954801;90;21105;-71
2022/10/28 12:21:37;;;;;;;5.87;3.15;;;;;;;22.56;56.46;100858.50;1963903;89;21088;-70
2022/10/28 12:24:41;;;;;;;7.08;2.40;;;;;;;22.55;57.40;100856.83;1942331;90;21016;-76
2022/10/28 12:27:46;;;;;;;6.50;2.67;;;;;;;22.66;57.46;100864.17;1964170;89;21003;-70
2022/10/28 12:30:51;;;;;;;7.37;3.10;;;;;;;22.73;57.31;100855.45;1955734;90;21615;-70
2022/10/28 12:34:03;;;;;;;4.50;2.70;;;;;;;22.81;57.33;100852.43;1989785;87;21108;-74
2022/10/28 12:37:09;;;;;;;9.28;2.87;;;;;;;22.78;56.85;100857.48;2003131;88;21545;-70
2022/10/28 12:40:22;;;;;;;9.45;3.02;;;;;;;22.76;56.55;100856.88;2000257;87;21042;-72
2022/10/28 12:43:44;;;;;;;5.85;3.02;;;;;;;22.79;56.76;100854.53;1999137;87;21077;-71
2022/10/28 12:47:14;;;;;;;8.43;3.10;;;;;;;22.76;54.74;100845.52;1999560;88;21130;-71
2022/10/28 12:50:37;;;;;;;6.92;2.42;;;;;;;22.76;56.40;100848.23;2002233;88;21550;-70
2022/10/28 12:54:03;;;;;;;9.75;2.55;;;;;;;22.83;56.00;100846.77;2002754;88;21113;-71
2022/10/28 12:57:13;;;;;;;12.55;4.15;;;;;;;22.86;56.28;100846.84;1992570;87;21089;-72
2022/10/28 13:00:19;;;;;;;9.73;3.27;;;;;;;22.88;55.53;100836.63;1996870;88;21571;-71
2022/10/28 13:03:23;;;;;;;3.75;2.92;;;;;;;22.83;55.06;100830.53;1996835;87;21131;-72
2022/10/28 13:06:56;;;;;;;6.25;2.95;;;;;;;22.76;55.42;100828.47;1999235;88;21066;-76
2022/10/28 13:10:24;;;;;;;7.08;3.25;;;;;;;22.75;55.34;100828.16;1996667;87;21523;-70
2022/10/28 13:13:43;;;;;;;8.53;3.62;;;;;;;22.73;54.87;100824.88;1994726;87;21529;-72
2022/10/28 13:17:31;;;;;;;12.05;2.33;;;;;;;22.72;55.15;100825.91;2001904;87;21077;-71
2022/10/28 13:21:13;;;;;;;6.83;2.85;;;;;;;22.69;54.70;100824.48;2003551;87;21033;-71
2022/10/28 13:24:52;;;;;;;4.37;2.20;;;;;;;22.63;54.78;100824.06;1996708;87;21073;-70
2022/10/28 13:27:56;;;;;;;8.55;2.65;;;;;;;22.58;54.75;100826.63;1992126;88;21087;-71
2022/10/28 13:31:02;;;;;;;9.50;3.45;;;;;;;22.57;54.34;100814.98;1996300;87;21744;-71
2022/10/28 13:34:05;;;;;;;4.45;2.47;;;;;;;22.51;54.66;100806.97;1993724;87;21530;-71
2022/10/28 13:37:11;;;;;;;6.30;2.58;;;;;;;22.44;54.26;100804.88;1997786;87;21625;-71
2022/10/28 13:40:24;;;;;;;4.05;2.60;;;;;;;22.43;54.61;100807.28;1997385;87;21090;-72
2022/10/28 13:43:56;;;;;;;8.50;2.77;;;;;;;22.36;54.82;100808.20;1993478;87;21091;-72
2022/10/28 13:47:05;;;;;;;4.03;2.60;;;;;;;22.31;54.35;100805.36;2008989;88;21516;-74
2022/10/28 13:50:13;;;;;;;9.68;2.80;;;;;;;22.25;54.83;100804.92;2003875;87;21114;-77
2022/10/28 13:53:32;;;;;;;6.85;3.12;;;;;;;22.18;54.76;100805.52;2003357;87;21080;-73
2022/10/28 13:56:44;;;;;;;6.58;2.95;;;;;;;22.13;54.98;100805.33;1999226;87;21104;-74
2022/10/28 13:59:59;;;;;;;7.70;3.27;;;;;;;22.13;54.88;100806.68;1996413;87;21044;-70
2022/10/28 14:03:26;;;;;;;10.35;4.10;;;;;;;22.07;54.66;100794.08;2001416;87;21625;-72
2022/10/28 14:06:31;;;;;;;6.60;2.80;;;;;;;21.99;54.60;100793.88;1997735;88;21040;-71
2022/10/28 14:09:34;;;;;;;8.13;3.27;;;;;;;21.92;54.83;100795.28;1968413;88;21069;-70
2022/10/28 14:12:41;;;;;;;5.87;2.70;;;;;;;21.85;54.93;100793.20;1999494;88;21143;-70
2022/10/28 14:15:42;;;;;;;8.00;3.22;;;;;;;21.82;55.44;100797.70;2000864;87;21579;-70
2022/10/28 14:18:52;;;;;;;8.43;2.92;;;;;;;21.77;55.23;100793.50;1994382;87;21513;-70
2022/10/28 14:22:07;;;;;;;8.87;2.93;;;;;;;21.72;55.47;100793.34;2001543;87;21052;-70
2022/10/28 14:25:55;;;;;;;6.67;3.80;;;;;;;21.68;55.64;100799.72;2008050;87;21028;-72
2022/10/28 14:28:56;;;;;;;7.42;3.70;;;;;;;21.66;55.88;100813.14;2000903;88;21040;-71